createdAt,value
2019-02-03T00:01:14.589Z,6.60
2019-02-03T00:03:43.698Z,6.70
2019-02-03T00:06:13.161Z,6.70
2019-02-03T00:08:42.173Z,7.90
2019-02-03T00:11:11.522Z,7.20
2019-02-03T00:13:40.477Z,8.00
2019-02-03T00:16:09.806Z,7.83
2019-02-03T00:18:38.911Z,8.70
2019-02-03T00:21:07.896Z,8.53
2019-02-03T00:23:37.050Z,9.77
2019-02-03T00:26:06.129Z,9.30
2019-02-03T00:28:35.148Z,9.87
2019-02-03T00:31:04.271Z,9.87
2019-02-03T00:33:33.361Z,9.63
2019-02-03T00:36:02.371Z,9.60
2019-02-03T00:38:31.342Z,9.70
2019-02-03T00:41:00.816Z,10.50
2019-02-03T00:43:30.167Z,9.37
2019-02-03T00:45:59.106Z,10.50
2019-02-03T00:48:28.358Z,10.83
2019-02-03T00:50:57.365Z,9.53
2019-02-03T00:53:26.832Z,9.53
2019-02-03T00:55:55.838Z,9.20
2019-02-03T00:58:24.875Z,9.27
2019-02-03T01:00:53.934Z,8.33
2019-02-03T01:03:23.241Z,7.40
2019-02-03T01:05:52.182Z,8.07
2019-02-03T01:08:21.539Z,8.23
2019-02-03T01:10:50.602Z,8.07
2019-02-03T01:13:20.036Z,8.60
2019-02-03T01:15:49.047Z,8.40
2019-02-03T01:18:17.993Z,8.57
2019-02-03T01:20:47.286Z,10.80
2019-02-03T01:23:16.318Z,9.23
2019-02-03T01:25:45.264Z,10.33
2019-02-03T01:28:14.397Z,9.77
2019-02-03T01:30:43.545Z,9.13
2019-02-03T01:33:12.517Z,10.23
2019-02-03T01:35:41.538Z,9.27
2019-02-03T01:38:10.557Z,9.27
2019-02-03T01:40:39.502Z,9.70
2019-02-03T01:43:08.558Z,9.57
2019-02-03T01:45:37.497Z,9.10
2019-02-03T01:48:07.009Z,9.30
2019-02-03T01:50:35.952Z,10.50
2019-02-03T01:53:04.977Z,9.27
2019-02-03T01:55:34.035Z,8.13
2019-02-03T01:58:03.096Z,8.80
2019-02-03T02:00:32.445Z,9.27
2019-02-03T02:03:01.453Z,9.17
2019-02-03T02:05:30.492Z,8.73
2019-02-03T02:07:59.520Z,9.20
2019-02-03T02:10:28.931Z,7.80
2019-02-03T02:12:57.962Z,9.70
2019-02-03T02:15:26.994Z,8.20
2019-02-03T02:17:55.929Z,9.90
2019-02-03T02:20:26.636Z,8.20
2019-02-03T02:22:56.129Z,9.00
2019-02-03T02:25:25.490Z,9.87
2019-02-03T02:27:54.631Z,8.60
2019-02-03T02:30:25.274Z,9.70
2019-02-03T02:32:54.467Z,9.00
2019-02-03T02:35:23.778Z,8.43
2019-02-03T02:38:05.854Z,8.57
2019-02-03T02:40:24.427Z,8.03
2019-02-03T02:42:53.458Z,9.13
2019-02-03T02:45:23.507Z,9.47
2019-02-03T02:47:52.623Z,9.27
2019-02-03T02:50:30.895Z,8.70
2019-02-03T02:53:00.146Z,9.40
2019-02-03T02:55:29.863Z,10.17
2019-02-03T02:57:59.468Z,9.60
2019-02-03T03:00:28.895Z,9.90
2019-02-03T03:02:57.986Z,9.90
2019-02-03T03:05:27.377Z,10.90
2019-02-03T03:07:56.392Z,10.53
2019-02-03T03:10:25.426Z,10.30
2019-02-03T03:12:54.659Z,9.80
2019-02-03T03:15:23.785Z,9.53
2019-02-03T03:17:52.807Z,10.00
2019-02-03T03:20:22.248Z,8.80
2019-02-03T03:22:51.965Z,8.90
2019-02-03T03:25:21.822Z,7.60
2019-02-03T03:27:50.797Z,8.30
2019-02-03T03:30:27.210Z,8.30
2019-02-03T03:32:56.523Z,8.37
2019-02-03T03:35:26.878Z,7.47
2019-02-03T03:37:55.887Z,7.70
2019-02-03T03:40:26.887Z,7.50
2019-02-03T03:42:55.993Z,6.20
2019-02-03T03:45:25.114Z,6.93
2019-02-03T03:47:54.219Z,6.27
2019-02-03T03:50:23.302Z,6.30
2019-02-03T03:52:52.350Z,5.83
2019-02-03T03:55:21.675Z,5.50
2019-02-03T03:57:50.687Z,5.53
2019-02-03T04:00:21.383Z,5.23
2019-02-03T04:02:51.472Z,5.70
2019-02-03T04:05:20.595Z,6.20
2019-02-03T04:07:49.937Z,6.10
2019-02-03T04:10:20.126Z,5.63
2019-02-03T04:12:49.166Z,7.67
2019-02-03T04:15:19.114Z,6.70
2019-02-03T04:17:48.564Z,7.40
2019-02-03T04:20:20.511Z,7.43
2019-02-03T04:22:49.630Z,7.37
2019-02-03T04:25:18.724Z,8.13
2019-02-03T04:27:47.729Z,8.60
2019-02-03T04:30:17.344Z,8.60
2019-02-03T04:32:46.660Z,7.50
2019-02-03T04:35:15.751Z,8.00
2019-02-03T04:37:45.118Z,8.70
2019-02-03T04:40:15.316Z,8.30
2019-02-03T04:42:44.638Z,10.03
2019-02-03T04:45:14.768Z,9.00
2019-02-03T04:47:43.905Z,10.13
2019-02-03T04:50:14.141Z,7.63
2019-02-03T04:52:43.172Z,7.80
2019-02-03T04:55:14.446Z,8.50
2019-02-03T04:57:44.130Z,7.33
2019-02-03T05:00:15.855Z,6.47
2019-02-03T05:02:45.189Z,6.60
2019-02-03T05:05:14.503Z,6.30
2019-02-03T05:07:43.442Z,5.70
2019-02-03T05:10:13.105Z,5.90
2019-02-03T05:12:42.138Z,5.67
2019-02-03T05:15:16.585Z,6.13
2019-02-03T05:17:45.597Z,6.43
2019-02-03T05:20:16.306Z,5.93
2019-02-03T05:22:46.047Z,6.63
2019-02-03T05:25:15.230Z,6.50
2019-02-03T05:27:44.255Z,7.07
2019-02-03T05:30:19.446Z,7.27
2019-02-03T05:32:48.774Z,6.40
2019-02-03T05:35:18.500Z,6.13
2019-02-03T05:37:47.431Z,6.80
2019-02-03T05:40:16.892Z,6.70
2019-02-03T05:42:46.191Z,6.90
2019-02-03T05:45:17.203Z,6.83
2019-02-03T05:47:46.274Z,7.10
2019-02-03T05:50:16.842Z,6.90
2019-02-03T05:52:46.258Z,6.00
2019-02-03T05:55:16.212Z,5.83
2019-02-03T05:57:45.293Z,5.93
2019-02-03T06:00:18.168Z,5.90
2019-02-03T06:02:47.263Z,5.17
2019-02-03T06:05:16.337Z,5.00
2019-02-03T06:07:45.672Z,5.30
2019-02-03T06:10:16.447Z,5.33
2019-02-03T06:12:45.474Z,4.47
2019-02-03T06:15:14.950Z,5.30
2019-02-03T06:17:43.968Z,5.00
2019-02-03T06:20:13.853Z,5.70
2019-02-03T06:22:42.875Z,5.00
2019-02-03T06:25:12.306Z,6.40
2019-02-03T06:27:41.410Z,6.20
2019-02-03T06:30:56.206Z,5.60
2019-02-03T06:33:26.290Z,6.43
2019-02-03T06:35:55.682Z,5.90
2019-02-03T06:38:25.093Z,6.97
2019-02-03T06:40:54.097Z,6.27
2019-02-03T06:43:22.982Z,7.17
2019-02-03T06:46:13.984Z,6.93
2019-02-03T06:48:43.262Z,6.50
2019-02-03T06:51:12.277Z,6.70
2019-02-03T06:53:41.145Z,6.87
2019-02-03T06:56:10.758Z,8.13
2019-02-03T06:58:40.278Z,7.27
2019-02-03T07:01:09.289Z,7.17
2019-02-03T07:03:38.315Z,7.50
2019-02-03T07:06:07.331Z,8.30
2019-02-03T07:08:36.653Z,8.03
2019-02-03T07:11:06.055Z,8.00
2019-02-03T07:13:35.017Z,8.97
2019-02-03T07:16:04.449Z,10.00
2019-02-03T07:18:33.525Z,9.23
2019-02-03T07:21:02.535Z,10.87
2019-02-03T07:23:31.503Z,10.17
2019-02-03T07:26:00.613Z,10.93
2019-02-03T07:28:29.649Z,11.47
2019-02-03T07:30:58.601Z,11.07
2019-02-03T07:33:27.921Z,12.70
2019-02-03T07:35:56.946Z,12.77
2019-02-03T07:38:25.893Z,13.63
2019-02-03T07:40:55.191Z,13.07
2019-02-03T07:43:24.425Z,12.63
2019-02-03T07:45:53.703Z,13.23
2019-02-03T07:48:24.130Z,13.23
2019-02-03T07:50:53.138Z,12.73
2019-02-03T07:53:22.422Z,15.20
2019-02-03T07:55:51.711Z,12.80
2019-02-03T07:58:21.026Z,14.27
2019-02-03T08:00:50.047Z,13.53
2019-02-03T08:03:19.077Z,13.37
2019-02-03T08:05:48.315Z,13.67
2019-02-03T08:08:17.614Z,13.80
2019-02-03T08:10:46.910Z,13.80
2019-02-03T08:13:15.971Z,14.77
2019-02-03T08:15:44.978Z,14.53
2019-02-03T08:18:14.465Z,13.70
2019-02-03T08:20:43.609Z,14.87
2019-02-03T08:23:32.565Z,13.57
2019-02-03T08:26:01.513Z,14.13
2019-02-03T08:28:31.270Z,13.00
2019-02-03T08:31:00.684Z,14.37
2019-02-03T08:33:30.282Z,13.67
2019-02-03T08:35:59.357Z,13.37
2019-02-03T08:38:28.439Z,14.00
2019-02-03T08:40:57.541Z,13.77
2019-02-03T08:43:26.723Z,13.40
2019-02-03T08:45:56.175Z,13.87
2019-02-03T08:48:25.674Z,13.17
2019-02-03T08:50:54.712Z,12.17
2019-02-03T08:53:23.742Z,13.33
2019-02-03T08:55:52.749Z,13.40
2019-02-03T08:58:21.707Z,12.50
2019-02-03T09:00:50.666Z,13.00
2019-02-03T09:03:19.630Z,11.70
2019-02-03T09:05:48.641Z,13.73
2019-02-03T09:08:17.939Z,14.17
2019-02-03T09:10:48.658Z,14.57
2019-02-03T09:13:17.864Z,15.53
2019-02-03T09:15:47.269Z,16.80
2019-02-03T09:18:16.354Z,17.80
2019-02-03T09:20:48.210Z,16.30
2019-02-03T09:23:17.654Z,17.07
2019-02-03T09:25:46.977Z,16.70
2019-02-03T09:28:15.945Z,17.33
2019-02-03T09:30:45.282Z,16.53
2019-02-03T09:33:14.630Z,16.93
2019-02-03T09:35:43.596Z,17.50
2019-02-03T09:38:12.938Z,18.00
2019-02-03T09:40:42.014Z,18.10
2019-02-03T09:43:11.418Z,19.50
2019-02-03T09:45:40.719Z,18.20
2019-02-03T09:48:10.018Z,16.67
2019-02-03T09:50:38.990Z,17.00
2019-02-03T09:53:08.112Z,18.40
2019-02-03T09:55:37.064Z,19.00
2019-02-03T09:58:06.768Z,18.70
2019-02-03T10:00:36.776Z,16.93
2019-02-03T10:03:08.718Z,18.40
2019-02-03T10:05:37.746Z,19.20
2019-02-03T10:08:07.262Z,18.10
2019-02-03T10:10:37.820Z,17.93
2019-02-03T10:13:07.697Z,17.90
2019-02-03T10:15:36.738Z,18.90
2019-02-03T10:18:08.151Z,21.30
2019-02-03T10:20:37.220Z,17.87
2019-02-03T10:23:07.026Z,18.80
2019-02-03T10:25:36.345Z,20.10
2019-02-03T10:28:06.287Z,17.70
2019-02-03T10:30:35.705Z,19.70
2019-02-03T10:33:05.022Z,18.03
2019-02-03T10:35:34.113Z,16.00
2019-02-03T10:38:04.017Z,18.20
2019-02-03T10:40:35.463Z,18.00
2019-02-03T10:43:05.561Z,18.23
2019-02-03T10:45:34.598Z,16.37
2019-02-03T10:48:04.393Z,18.73
2019-02-03T10:50:35.196Z,18.97
2019-02-03T10:53:06.041Z,18.37
2019-02-03T10:55:35.076Z,16.97
2019-02-03T10:58:04.486Z,14.80
2019-02-03T11:00:34.671Z,15.83
2019-02-03T11:03:03.855Z,17.07
2019-02-03T11:05:35.834Z,15.57
2019-02-03T11:08:05.194Z,15.23
2019-02-03T11:10:34.242Z,16.70
2019-02-03T11:13:03.297Z,15.40
2019-02-03T11:15:32.337Z,13.67
2019-02-03T11:18:01.358Z,16.60
2019-02-03T11:20:31.664Z,14.80
2019-02-03T11:23:00.760Z,17.17
2019-02-03T11:25:30.918Z,15.67
2019-02-03T11:28:00.019Z,13.53
2019-02-03T11:30:29.397Z,15.10
2019-02-03T11:33:04.739Z,15.80
2019-02-03T11:35:30.629Z,13.47
2019-02-03T11:37:59.717Z,13.50
2019-02-03T11:40:32.819Z,15.63
2019-02-03T11:43:01.901Z,13.90
2019-02-03T11:45:36.230Z,14.10
2019-02-03T11:48:08.116Z,14.30
2019-02-03T11:50:38.476Z,14.90
2019-02-03T11:53:09.746Z,14.37
2019-02-03T11:55:39.271Z,13.27
2019-02-03T11:58:09.361Z,14.70
2019-02-03T12:00:38.392Z,13.50
2019-02-03T12:03:08.406Z,13.27
2019-02-03T12:05:37.704Z,13.20
2019-02-03T12:08:06.973Z,13.27
2019-02-03T12:10:36.309Z,12.70
2019-02-03T12:13:06.649Z,11.87
2019-02-03T12:15:36.464Z,12.10
2019-02-03T12:18:06.232Z,11.90
2019-02-03T12:20:35.690Z,11.70
2019-02-03T12:23:05.061Z,11.67
2019-02-03T12:25:35.991Z,10.30
2019-02-03T12:28:07.441Z,11.27
2019-02-03T12:30:36.654Z,10.70
2019-02-03T12:33:06.443Z,11.07
2019-02-03T12:35:36.071Z,11.40
2019-02-03T12:38:05.547Z,9.60
2019-02-03T12:40:34.610Z,11.40
2019-02-03T12:43:03.744Z,11.57
2019-02-03T12:45:32.778Z,11.67
2019-02-03T12:48:01.958Z,11.33
2019-02-03T12:50:31.542Z,11.20
2019-02-03T12:53:01.150Z,12.10
2019-02-03T12:55:30.954Z,11.30
2019-02-03T12:58:00.066Z,11.90
2019-02-03T13:00:31.169Z,11.37
2019-02-03T13:03:00.405Z,11.90
2019-02-03T13:05:30.245Z,12.40
2019-02-03T13:08:00.482Z,12.50
2019-02-03T13:10:31.598Z,12.90
2019-02-03T13:13:00.759Z,12.87
2019-02-03T13:15:32.970Z,12.63
2019-02-03T13:18:02.267Z,13.67
2019-02-03T13:20:31.675Z,12.50
2019-02-03T13:23:00.726Z,14.17
2019-02-03T13:25:30.037Z,12.53
2019-02-03T13:27:59.426Z,14.73
2019-02-03T13:30:33.769Z,15.77
2019-02-03T13:33:02.822Z,14.27
2019-02-03T13:35:31.938Z,12.47
2019-02-03T13:38:13.630Z,13.80
2019-02-03T13:40:48.032Z,13.70
2019-02-03T13:43:17.450Z,14.00
2019-02-03T13:45:46.892Z,16.03
2019-02-03T13:48:16.393Z,13.53
2019-02-03T13:50:49.033Z,14.37
2019-02-03T13:53:25.581Z,13.73
2019-02-03T13:56:05.250Z,13.93
2019-02-03T13:58:37.021Z,14.80
2019-02-03T14:01:08.277Z,16.07
2019-02-03T14:03:37.711Z,14.03
2019-02-03T14:06:07.053Z,14.30
2019-02-03T14:08:36.069Z,14.60
2019-02-03T14:11:05.084Z,13.73
2019-02-03T14:13:34.062Z,14.90
2019-02-03T14:16:03.080Z,15.37
2019-02-03T14:18:32.046Z,14.50
2019-02-03T14:21:01.582Z,14.60
2019-02-03T14:23:30.825Z,14.60
2019-02-03T14:25:59.830Z,14.63
2019-02-03T14:28:28.896Z,15.10
2019-02-03T14:30:58.033Z,14.20
2019-02-03T14:33:27.480Z,14.43
2019-02-03T14:35:56.878Z,15.43
2019-02-03T14:38:25.943Z,15.27
2019-02-03T14:40:55.276Z,14.10
2019-02-03T14:43:24.321Z,13.70
2019-02-03T14:45:53.570Z,13.60
2019-02-03T14:48:23.281Z,14.23
2019-02-03T14:50:52.318Z,14.60
2019-02-03T14:53:21.678Z,13.30
2019-02-03T14:55:51.936Z,12.53
2019-02-03T14:58:21.201Z,15.60
2019-02-03T15:00:52.382Z,14.70
2019-02-03T15:03:23.252Z,16.10
2019-02-03T15:05:52.367Z,15.50
2019-02-03T15:08:21.863Z,14.80
2019-02-03T15:10:51.571Z,14.80
2019-02-03T15:13:20.601Z,14.70
2019-02-03T15:15:49.759Z,15.30
2019-02-03T15:18:19.033Z,14.20
2019-02-03T15:20:48.045Z,13.73
2019-02-03T15:23:16.994Z,15.27
2019-02-03T15:25:47.177Z,14.37
2019-02-03T15:28:17.183Z,14.53
2019-02-03T15:30:47.490Z,15.67
2019-02-03T15:33:24.020Z,13.47
2019-02-03T15:35:53.479Z,15.27
2019-02-03T15:38:22.682Z,13.93
2019-02-03T15:40:51.698Z,14.93
2019-02-03T15:43:25.718Z,15.17
2019-02-03T15:45:51.507Z,14.53
2019-02-03T15:48:20.858Z,14.93
2019-02-03T15:50:50.102Z,15.80
2019-02-03T15:53:19.421Z,16.10
2019-02-03T15:55:48.707Z,14.50
2019-02-03T15:58:17.648Z,16.23
2019-02-03T16:00:49.566Z,14.63
2019-02-03T16:03:18.810Z,15.30
2019-02-03T16:05:48.065Z,14.30
2019-02-03T16:08:17.785Z,15.00
2019-02-03T16:10:47.154Z,15.57
2019-02-03T16:13:17.002Z,16.90
2019-02-03T16:15:46.286Z,15.70
2019-02-03T16:18:15.316Z,15.30
2019-02-03T16:20:44.781Z,16.40
2019-02-03T16:23:14.289Z,15.60
2019-02-03T16:25:43.698Z,16.40
2019-02-03T16:28:12.999Z,17.03
2019-02-03T16:30:43.109Z,16.17
2019-02-03T16:33:13.340Z,16.53
2019-02-03T16:35:42.534Z,16.07
2019-02-03T16:38:22.591Z,14.97
2019-02-03T16:40:44.763Z,16.80
2019-02-03T16:43:14.198Z,15.90
2019-02-03T16:45:44.246Z,17.83
2019-02-03T16:48:13.696Z,17.33
2019-02-03T16:50:43.083Z,17.50
2019-02-03T16:53:12.403Z,16.70
2019-02-03T16:55:41.911Z,16.40
2019-02-03T16:58:11.703Z,18.83
2019-02-03T17:00:41.071Z,18.50
2019-02-03T17:03:10.586Z,18.70
2019-02-03T17:05:39.807Z,19.33
2019-02-03T17:08:09.361Z,16.63
2019-02-03T17:10:38.594Z,16.77
2019-02-03T17:13:08.419Z,16.97
2019-02-03T17:15:43.466Z,16.10
2019-02-03T17:18:13.522Z,18.27
2019-02-03T17:20:42.641Z,16.63
2019-02-03T17:23:12.946Z,17.50
2019-02-03T17:25:48.463Z,18.90
2019-02-03T17:28:17.602Z,19.03
2019-02-03T17:30:46.681Z,17.07
2019-02-03T17:33:15.702Z,17.80
2019-02-03T17:35:54.050Z,17.70
2019-02-03T17:38:15.839Z,15.43
2019-02-03T17:40:44.954Z,16.67
2019-02-03T17:43:13.833Z,17.20
2019-02-03T17:45:42.855Z,18.10
2019-02-03T17:48:12.226Z,17.57
2019-02-03T17:50:41.522Z,14.90
2019-02-03T17:53:10.562Z,15.67
2019-02-03T17:55:40.333Z,15.23
2019-02-03T17:58:09.428Z,14.90
2019-02-03T18:00:45.156Z,15.40
2019-02-03T18:03:14.379Z,16.03
2019-02-03T18:05:43.683Z,14.73
2019-02-03T18:08:12.732Z,16.80
2019-02-03T18:10:41.971Z,16.20
2019-02-03T18:13:11.014Z,16.93
2019-02-03T18:15:40.368Z,22.53
2019-02-03T18:18:09.979Z,21.00
2019-02-03T18:20:39.244Z,22.70
2019-02-03T18:23:08.577Z,22.20
2019-02-03T18:25:37.618Z,18.77
2019-02-03T18:28:06.969Z,15.70
2019-02-03T18:30:36.688Z,20.57
2019-02-03T18:33:06.622Z,17.80
2019-02-03T18:35:35.659Z,19.47
2019-02-03T18:38:06.195Z,18.40
2019-02-03T18:40:35.621Z,19.33
2019-02-03T18:43:05.435Z,21.70
2019-02-03T18:45:34.739Z,22.87
2019-02-03T18:48:04.259Z,24.20
2019-02-03T18:50:33.659Z,19.87
2019-02-03T18:53:02.607Z,19.90
2019-02-03T18:55:33.610Z,19.40
2019-02-03T18:58:02.625Z,21.00
2019-02-03T19:00:35.983Z,21.60
2019-02-03T19:03:07.073Z,22.80
2019-02-03T19:05:37.319Z,21.70
2019-02-03T19:08:06.333Z,20.40
2019-02-03T19:10:35.631Z,20.70
2019-02-03T19:13:05.315Z,20.23
2019-02-03T19:15:37.517Z,21.30
2019-02-03T19:18:07.534Z,20.43
2019-02-03T19:20:37.829Z,19.30
2019-02-03T19:23:07.834Z,20.47
2019-02-03T19:25:36.865Z,19.87
2019-02-03T19:28:05.933Z,20.33
2019-02-03T19:30:35.348Z,19.20
2019-02-03T19:33:05.157Z,19.77
2019-02-03T19:35:34.154Z,21.17
2019-02-03T19:38:03.109Z,21.43
2019-02-03T19:40:32.188Z,20.87
2019-02-03T19:43:01.189Z,20.73
2019-02-03T19:45:30.410Z,20.97
2019-02-03T19:47:59.549Z,20.70
2019-02-03T19:50:30.957Z,22.10
2019-02-03T19:53:00.243Z,20.80
2019-02-03T19:55:29.595Z,21.97
2019-02-03T19:57:59.042Z,20.17
2019-02-03T20:00:33.361Z,21.23
2019-02-03T20:03:02.446Z,21.37
2019-02-03T20:05:31.818Z,24.50
2019-02-03T20:08:01.114Z,22.10
2019-02-03T20:10:30.414Z,22.37
2019-02-03T20:13:01.643Z,20.90
2019-02-03T20:15:30.134Z,21.73
2019-02-03T20:17:59.585Z,20.47
2019-02-03T20:20:31.112Z,19.10
2019-02-03T20:23:00.135Z,19.57
2019-02-03T20:25:29.625Z,17.60
2019-02-03T20:27:58.909Z,18.87
2019-02-03T20:30:37.986Z,16.90
2019-02-03T20:32:59.674Z,17.83
2019-02-03T20:35:29.480Z,17.50
2019-02-03T20:37:59.515Z,17.63
2019-02-03T20:40:31.068Z,17.60
2019-02-03T20:43:00.188Z,18.23
2019-02-03T20:45:29.315Z,18.47
2019-02-03T20:47:58.325Z,18.10
2019-02-03T20:50:27.765Z,16.77
2019-02-03T20:52:57.640Z,16.20
2019-02-03T20:55:27.048Z,17.70
2019-02-03T20:57:56.074Z,16.53
2019-02-03T21:00:27.509Z,16.90
2019-02-03T21:02:56.735Z,16.03
2019-02-03T21:05:25.849Z,16.10
2019-02-03T21:07:54.985Z,17.50
2019-02-03T21:10:24.266Z,16.57
2019-02-03T21:12:53.238Z,16.87
2019-02-03T21:15:32.903Z,18.60
2019-02-03T21:17:55.142Z,16.50
2019-02-03T21:20:26.515Z,16.77
2019-02-03T21:22:55.829Z,16.57
2019-02-03T21:25:24.980Z,14.47
2019-02-03T21:27:54.745Z,16.80
2019-02-03T21:30:25.906Z,16.87
2019-02-03T21:32:55.304Z,16.70
2019-02-03T21:35:24.325Z,14.97
2019-02-03T21:37:53.366Z,17.30
2019-02-03T21:40:24.231Z,15.40
2019-02-03T21:42:53.821Z,15.70
2019-02-03T21:45:22.914Z,15.80
2019-02-03T21:47:52.942Z,16.80
2019-02-03T21:50:24.086Z,15.57
2019-02-03T21:52:53.136Z,16.23
2019-02-03T21:55:22.846Z,15.73
2019-02-03T21:57:52.334Z,15.30
2019-02-03T22:00:23.558Z,15.30
2019-02-03T22:02:52.641Z,15.20
2019-02-03T22:05:22.033Z,16.10
2019-02-03T22:07:51.081Z,15.83
2019-02-03T22:10:22.448Z,16.07
2019-02-03T22:12:51.523Z,14.00
2019-02-03T22:15:20.906Z,14.60
2019-02-03T22:17:50.160Z,15.83
2019-02-03T22:20:20.898Z,14.80
2019-02-03T22:22:50.028Z,13.27
2019-02-03T22:25:19.211Z,14.43
2019-02-03T22:27:48.622Z,13.40
2019-02-03T22:30:38.393Z,13.30
2019-02-03T22:33:08.663Z,13.53
2019-02-03T22:35:38.034Z,14.07
2019-02-03T22:38:08.644Z,12.73
2019-02-03T22:40:37.753Z,12.87
2019-02-03T22:43:06.854Z,12.03
2019-02-03T22:45:35.891Z,13.63
2019-02-03T22:48:06.748Z,13.50
2019-02-03T22:50:35.806Z,12.20
2019-02-03T22:53:05.089Z,13.70
2019-02-03T22:55:34.110Z,12.93
2019-02-03T22:58:03.674Z,15.00
2019-02-03T23:01:00.925Z,13.30
2019-02-03T23:03:45.780Z,12.50
2019-02-03T23:06:14.798Z,13.67
2019-02-03T23:08:44.101Z,11.90
2019-02-03T23:11:13.895Z,11.33
2019-02-03T23:13:43.297Z,12.53
2019-02-03T23:16:18.319Z,10.60
2019-02-03T23:18:43.779Z,11.70
2019-02-03T23:21:12.796Z,10.47
2019-02-03T23:23:42.082Z,10.43
2019-02-03T23:26:11.108Z,10.87
2019-02-03T23:28:40.126Z,11.30
2019-02-03T23:31:09.150Z,11.23
2019-02-03T23:33:38.441Z,11.07
2019-02-03T23:36:07.457Z,11.87
2019-02-03T23:38:36.480Z,11.13
2019-02-03T23:41:06.029Z,10.80
2019-02-03T23:43:35.053Z,10.20
2019-02-03T23:46:04.110Z,11.17
2019-02-03T23:48:33.137Z,11.77
2019-02-03T23:51:02.406Z,12.07
2019-02-03T23:53:31.422Z,11.13
2019-02-03T23:56:00.782Z,10.87
2019-02-03T23:58:29.834Z,12.00
